Portada
METAR-TAF:

METAR-TAF

Aeroports :

Aeroport Internacional de Tan Son Nhat

Ciutat Ho Chi Minh, Vietnam

latitud: 10-49N, longitud: 106-40E, altitud: 19 m

Observació

L'informe es va fer fa 37 minuts, a les 11:00 UTC
Vent 4 kt del Oest
Temperatura 25°C
Humitat 57%
Pressió 1010 hPa
Visibilitat: 8000 m
Escasses núvols a una alçada de 2000 ft
Núvols disperses a una alçada de 5000 ft

METAR: VVTS 191100Z 28004KT 8000 FEW020 SCT050 25/16 Q1010 NOSIG

Hora: 18:37 (11:37 UTC)

Pronòstic

L'informe es va fer fa 6 hores i 37 minuts, a les 05:00 UTC
Pronòstic vàlid del 19 a les 06 UTC al 20 a les 12 UTC
Vent 8 kt del Nord/Nord-Oest
Visibilitat 10 km o més
Escasses núvols a una alçada de 1700 ft

TAF: VVTS 190500Z 1906/2012 33008KT 9999 FEW017

Observacions i pronòstics meteorològics de més de 4000 aeroports (METAR i TAF).

Les estacions disponibles són els punts grocs i vermells al mapa.

Posi el ratolí al punt desitjat per veure el nom de l'estació.

Feu clic per veure les observacions i els pronòstics meteorològics.

Per canviar el mapa: feu clic els botons verds amb una creu de color negre per apropar; al botó verd amb un guió per allunyar la imatge; o en les fletxes verdes per a mapes adjacents.


METAR-TAF: